Time;durP1;ratioP1;P1;durP2;ratioP2;P2;SDS_P1;SDS_P2;PMS_P1;PMS_P2;Temp;Humidity;BMP_temperature;BMP_pressure;BME280_temperature;BME280_humidity;BME280_pressure;Samples;Min_cycle;Max_cycle;Signal;HPM_P1;HPM_P2
2022/11/09 05:19:01;;;;;;;;;;;;;;;14.35;67.29;96838.00;4225789;27;10319;-71
2022/11/09 05:21:04;;;;;;;;;;;;;;;14.60;66.73;96835.38;4224923;28;5617;-71
2022/11/09 05:25:27;;;;;;;;;;;;;;;15.05;65.89;96852.78;4225133;28;5622;-70
2022/11/09 05:27:31;;;;;;;;;;;;;;;15.19;65.89;96856.16;4225128;28;5699;-67
2022/11/09 05:29:34;;;;;;;;;;;;;;;15.27;65.78;96863.00;4227139;28;6101;-70
2022/11/09 05:31:38;;;;;;;;;;;;;;;15.35;65.70;96860.88;4223751;28;5812;-67
2022/11/09 05:33:41;;;;;;;;;;;;;;;15.44;65.68;96864.06;4224149;27;5628;-68
2022/11/09 05:35:45;;;;;;;;;;;;;;;15.54;65.39;96863.56;4217718;28;5651;-68
2022/11/09 05:37:48;;;;;;;;;;;;;;;15.61;65.49;96853.66;4225497;28;5726;-67
2022/11/09 05:39:51;;;;;;;;;;;;;;;15.59;65.41;96843.19;4228562;28;5743;-67
2022/11/09 05:41:55;;;;;;;;;;;;;;;15.53;65.52;96846.75;4225937;28;5873;-66
2022/11/09 05:43:57;;;;;;;;;;;;;;;15.51;65.58;96837.34;4225187;28;5621;-69
2022/11/09 05:46:00;;;;;;;;;;;;;;;15.50;65.58;96846.38;4228892;28;6328;-69
2022/11/09 05:48:09;;;;;;;;;;;;;;;15.50;65.70;96835.72;4222752;27;6817;-70
2022/11/09 05:50:15;;;;;;;;;;;;;;;15.52;65.73;96839.81;4225136;28;5783;-72
2022/11/09 05:52:20;;;;;;;;;;;;;;;15.50;65.54;96831.19;4224149;28;5711;-67
2022/11/09 05:54:24;;;;;;;;;;;;;;;15.52;65.87;96834.47;4228503;28;6637;-67
2022/11/09 05:56:27;;;;;;;;;;;;;;;15.55;65.96;96844.69;4225442;28;6537;-68
2022/11/09 05:58:31;;;;;;;;;;;;;;;15.60;65.74;96836.84;4228810;28;5793;-69
2022/11/09 06:00:38;;;;;;;;;;;;;;;15.63;65.57;96835.59;4228230;28;5601;-71
2022/11/09 06:02:44;;;;;;;;;;;;;;;15.65;65.89;96831.69;4227921;28;5697;-67
2022/11/09 06:04:48;;;;;;;;;;;;;;;15.68;65.75;96828.56;4224987;28;5635;-68
2022/11/09 06:06:51;;;;;;;;;;;;;;;15.68;65.61;96827.75;4227805;28;5715;-66
2022/11/09 06:08:55;;;;;;;;;;;;;;;15.66;65.78;96825.31;4222198;28;6337;-66
2022/11/09 06:10:59;;;;;;;;;;;;;;;15.63;65.82;96828.44;4216408;28;5732;-72
2022/11/09 06:13:02;;;;;;;;;;;;;;;15.64;65.79;96824.72;4224197;28;5632;-65
2022/11/09 06:15:07;;;;;;;;;;;;;;;15.63;65.99;96824.94;4225657;28;5802;-64
2022/11/09 06:17:10;;;;;;;;;;;;;;;15.61;66.10;96829.66;4222163;28;5647;-64
2022/11/09 06:19:13;;;;;;;;;;;;;;;15.61;65.94;96829.66;4221333;28;5714;-65
2022/11/09 06:21:16;;;;;;;;;;;;;;;15.59;66.04;96824.53;4216630;28;5709;-64
2022/11/09 06:23:24;;;;;;;;;;;;;;;15.59;66.14;96826.38;4215154;28;5094;-64
2022/11/09 06:25:28;;;;;;;;;;;;;;;15.63;66.06;96830.28;4214635;28;5835;-64
2022/11/09 06:27:31;;;;;;;;;;;;;;;15.62;66.10;96823.28;4214385;28;5703;-65
2022/11/09 06:29:34;;;;;;;;;;;;;;;15.61;66.11;96825.16;4213495;28;5617;-64
2022/11/09 06:31:37;;;;;;;;;;;;;;;15.61;66.02;96830.47;4216533;28;5672;-65
2022/11/09 06:33:41;;;;;;;;;;;;;;;15.62;66.37;96829.44;4218069;28;5631;-64
2022/11/09 06:35:44;;;;;;;;;;;;;;;15.62;66.20;96829.44;4217038;28;5707;-65
2022/11/09 06:37:47;;;;;;;;;;;;;;;15.61;66.21;96827.81;4215587;28;5696;-64
2022/11/09 06:39:50;;;;;;;;;;;;;;;15.63;66.40;96831.09;4210031;28;5620;-65
2022/11/09 06:41:54;;;;;;;;;;;;;;;15.65;66.33;96830.88;4214597;28;6127;-65
2022/11/09 06:43:57;;;;;;;;;;;;;;;15.67;66.19;96834.13;4216795;28;5739;-65
2022/11/09 06:46:03;;;;;;;;;;;;;;;15.69;66.18;96843.50;4204446;28;5776;-65
2022/11/09 06:48:06;;;;;;;;;;;;;;;15.70;66.01;96842.47;4214151;28;5706;-65
2022/11/09 06:50:11;;;;;;;;;;;;;;;15.69;66.25;96840.03;4215852;28;5720;-65
2022/11/09 06:52:14;;;;;;;;;;;;;;;15.69;66.04;96845.34;4212204;28;5837;-65
2022/11/09 06:54:17;;;;;;;;;;;;;;;15.68;66.20;96851.72;4216680;28;5826;-65
2022/11/09 06:56:20;;;;;;;;;;;;;;;15.66;66.15;96851.94;4216008;28;5720;-65
2022/11/09 06:58:24;;;;;;;;;;;;;;;15.69;66.19;96853.34;4216175;28;5609;-71
2022/11/09 07:00:28;;;;;;;;;;;;;;;15.70;65.89;96861.13;4214285;28;5824;-68
2022/11/09 07:02:31;;;;;;;;;;;;;;;15.70;66.02;96855.78;4215107;28;6263;-67
2022/11/09 07:04:34;;;;;;;;;;;;;;;15.70;65.97;96855.78;4206177;28;5632;-70
2022/11/09 07:06:40;;;;;;;;;;;;;;;15.73;65.66;96871.31;4214111;28;5733;-65
2022/11/09 07:08:43;;;;;;;;;;;;;;;15.72;65.65;96867.03;4217473;28;5706;-65
2022/11/09 07:10:45;;;;;;;;;;;;;;;15.72;65.81;96874.22;4214225;28;6508;-66
2022/11/09 07:12:48;;;;;;;;;;;;;;;15.72;65.61;96877.69;4210267;28;6281;-65
2022/11/09 07:14:53;;;;;;;;;;;;;;;15.73;65.36;96883.84;4215652;28;6461;-66
2022/11/09 07:16:56;;;;;;;;;;;;;;;15.70;65.27;96877.13;4209647;28;5643;-65
2022/11/09 07:18:59;;;;;;;;;;;;;;;15.70;65.30;96868.31;4210143;28;5648;-66
2022/11/09 07:21:04;;;;;;;;;;;;;;;15.68;65.30;96867.72;4216435;28;5743;-66
2022/11/09 07:23:16;;;;;;;;;;;;;;;15.61;65.15;96870.44;4212414;28;5624;-74
2022/11/09 07:25:20;;;;;;;;;;;;;;;15.59;64.97;96871.69;4210445;28;5621;-71
2022/11/09 07:27:24;;;;;;;;;;;;;;;15.56;65.04;96870.28;4215556;28;5605;-71
2022/11/09 07:29:30;;;;;;;;;;;;;;;15.47;65.01;96860.16;4207104;28;5651;-71
2022/11/09 07:31:35;;;;;;;;;;;;;;;15.40;64.83;96846.88;4204228;28;5719;-67
2022/11/09 07:33:38;;;;;;;;;;;;;;;15.49;64.72;96866.88;4205507;28;5748;-70
2022/11/09 07:35:41;;;;;;;;;;;;;;;15.46;64.43;96859.31;4212875;28;5719;-69
2022/11/09 07:37:44;;;;;;;;;;;;;;;15.46;64.69;96863.84;4216777;28;5613;-71
2022/11/09 07:39:50;;;;;;;;;;;;;;;15.47;64.39;96860.94;4213225;28;5629;-69
2022/11/09 07:41:54;;;;;;;;;;;;;;;15.51;64.43;96859.47;4210389;28;5639;-69
2022/11/09 07:43:57;;;;;;;;;;;;;;;15.51;64.11;96863.97;4204729;28;5635;-73
2022/11/09 07:46:07;;;;;;;;;;;;;;;15.50;64.31;96862.34;4216118;28;5739;-70
2022/11/09 07:48:12;;;;;;;;;;;;;;;15.53;64.09;96872.59;4214670;28;5817;-66
2022/11/09 07:50:15;;;;;;;;;;;;;;;15.57;64.06;96881.75;4211702;28;6854;-65
2022/11/09 07:52:20;;;;;;;;;;;;;;;15.59;63.65;96871.69;4214368;28;5605;-74
2022/11/09 07:54:26;;;;;;;;;;;;;;;15.62;63.77;96874.75;4194341;28;5790;-73
2022/11/09 07:56:32;;;;;;;;;;;;;;;15.67;63.60;96879.41;4208607;28;5842;-74
2022/11/09 07:58:36;;;;;;;;;;;;;;;15.69;63.55;96878.16;4210652;28;5609;-73
2022/11/09 08:00:42;;;;;;;;;;;;;;;15.69;63.67;96872.81;4215295;28;5612;-73
2022/11/09 08:02:50;;;;;;;;;;;;;;;15.70;63.69;96874.44;4217701;28;5724;-73
2022/11/09 08:04:58;;;;;;;;;;;;;;;15.69;63.26;96875.50;4217887;28;5734;-73
2022/11/09 08:07:01;;;;;;;;;;;;;;;15.67;63.28;96872.22;4217560;28;5663;-73
2022/11/09 08:09:12;;;;;;;;;;;;;;;15.63;63.40;96863.06;4217528;28;5700;-73
2022/11/09 08:11:21;;;;;;;;;;;;;;;15.62;63.23;96856.09;4217632;28;5756;-73
2022/11/09 08:13:29;;;;;;;;;;;;;;;15.62;63.30;96856.09;4217733;28;5609;-73
2022/11/09 08:15:38;;;;;;;;;;;;;;;15.62;63.09;96850.75;4198859;28;5639;-73
2022/11/09 08:17:44;;;;;;;;;;;;;;;15.64;62.97;96847.91;4197034;28;5836;-73
2022/11/09 08:19:47;;;;;;;;;;;;;;;15.69;63.03;96853.34;4200923;28;5816;-73
2022/11/09 08:21:57;;;;;;;;;;;;;;;15.70;62.96;96845.13;4200671;28;5790;-73
2022/11/09 08:24:15;;;;;;;;;;;;;;;15.71;62.94;96844.09;4200624;28;5781;-73
2022/11/09 08:26:26;;;;;;;;;;;;;;;15.70;62.83;96847.78;4198183;28;5695;-73
2022/11/09 08:28:30;;;;;;;;;;;;;;;15.72;62.77;96856.38;4200680;28;5797;-73
2022/11/09 08:30:34;;;;;;;;;;;;;;;15.73;62.87;96851.84;4200444;28;5845;-73
2022/11/09 08:32:48;;;;;;;;;;;;;;;15.69;62.80;96846.16;4200375;28;5698;-73
2022/11/09 08:34:51;;;;;;;;;;;;;;;15.81;62.58;96862.22;4200641;28;5703;-73
2022/11/09 08:37:09;;;;;;;;;;;;;;;15.83;62.45;96867.31;4200298;28;5811;-74
2022/11/09 08:39:13;;;;;;;;;;;;;;;15.84;62.48;96875.09;4200376;28;5766;-74
2022/11/09 08:41:22;;;;;;;;;;;;;;;15.86;62.51;96874.91;4199173;28;6452;-74
2022/11/09 08:43:25;;;;;;;;;;;;;;;15.86;62.54;96877.56;4200808;28;5724;-74
2022/11/09 08:45:34;;;;;;;;;;;;;;;15.88;62.82;96883.47;4200502;28;5691;-74
2022/11/09 08:47:42;;;;;;;;;;;;;;;15.90;62.47;96884.06;4200426;28;5698;-74
2022/11/09 08:49:47;;;;;;;;;;;;;;;15.92;62.50;96889.97;4200818;28;5693;-73
2022/11/09 08:51:55;;;;;;;;;;;;;;;15.92;62.55;96887.31;4200627;28;5710;-73
2022/11/09 08:53:58;;;;;;;;;;;;;;;15.92;62.41;96892.63;4200322;28;5721;-74
2022/11/09 08:56:05;;;;;;;;;;;;;;;15.90;62.52;96884.06;4200541;28;5694;-73
2022/11/09 08:58:10;;;;;;;;;;;;;;;15.90;62.35;96882.22;4200617;28;5686;-73
2022/11/09 09:00:15;;;;;;;;;;;;;;;15.90;62.21;96886.72;4199155;28;5623;-73
2022/11/09 09:02:18;;;;;;;;;;;;;;;15.88;62.18;96886.16;4200496;28;5698;-73
2022/11/09 09:04:21;;;;;;;;;;;;;;;15.87;62.39;96893.31;4200355;28;5777;-73
2022/11/09 09:06:27;;;;;;;;;;;;;;;15.89;62.34;96882.44;4200077;28;5690;-73
2022/11/09 09:08:37;;;;;;;;;;;;;;;15.91;62.09;96885.69;4200112;28;5793;-73
2022/11/09 09:10:41;;;;;;;;;;;;;;;15.92;62.29;96887.31;4200275;28;5697;-74
2022/11/09 09:12:48;;;;;;;;;;;;;;;15.90;62.23;96884.88;4200429;28;5690;-74
2022/11/09 09:14:53;;;;;;;;;;;;;;;15.91;62.18;96885.69;4200528;28;5773;-73
2022/11/09 09:17:02;;;;;;;;;;;;;;;15.91;62.17;96875.03;4200509;28;5702;-74
2022/11/09 09:19:07;;;;;;;;;;;;;;;15.94;61.97;96879.91;4213524;28;5621;-73
2022/11/09 09:21:12;;;;;;;;;;;;;;;15.96;62.16;96883.16;4217107;28;5630;-73
2022/11/09 09:23:16;;;;;;;;;;;;;;;15.95;62.16;96882.34;4217000;28;5636;-74
2022/11/09 09:25:20;;;;;;;;;;;;;;;15.95;62.28;96881.53;4216574;28;6365;-74
2022/11/09 09:27:24;;;;;;;;;;;;;;;15.98;62.10;96875.75;4198951;28;5722;-74
2022/11/09 09:29:33;;;;;;;;;;;;;;;16.00;62.08;96881.69;4216985;28;5617;-74
2022/11/09 09:31:40;;;;;;;;;;;;;;;16.01;62.06;96869.97;4216739;28;5832;-73
2022/11/09 09:33:46;;;;;;;;;;;;;;;16.00;61.99;96874.50;4216728;28;6342;-74
2022/11/09 09:35:50;;;;;;;;;;;;;;;16.00;62.06;96873.69;4216910;28;5612;-74
2022/11/09 09:38:00;;;;;;;;;;;;;;;15.97;61.98;96868.81;4216831;28;5613;-74
2022/11/09 09:40:09;;;;;;;;;;;;;;;15.98;62.01;96878.44;4216532;28;5612;-74
2022/11/09 09:42:17;;;;;;;;;;;;;;;16.00;62.15;96879.81;4216788;28;5693;-74
2022/11/09 09:44:33;;;;;;;;;;;;;;;16.01;62.10;96872.63;4216680;28;5609;-74
2022/11/09 09:46:44;;;;;;;;;;;;;;;16.02;62.00;96872.41;4216634;28;5605;-74
2022/11/09 09:49:01;;;;;;;;;;;;;;;16.05;62.03;96879.13;4208252;28;5609;-74
2022/11/09 09:51:12;;;;;;;;;;;;;;;16.07;61.95;96881.56;4216791;28;5056;-74
2022/11/09 09:53:23;;;;;;;;;;;;;;;16.08;61.82;96878.69;4216642;28;5640;-74
2022/11/09 09:55:39;;;;;;;;;;;;;;;16.10;61.88;96883.81;4219950;28;6517;-74
2022/11/09 09:57:49;;;;;;;;;;;;;;;16.11;62.01;96893.44;4220104;28;5707;-74
2022/11/09 09:59:56;;;;;;;;;;;;;;;16.11;61.94;96880.91;4201834;28;5632;-74
2022/11/09 10:01:59;;;;;;;;;;;;;;;16.12;61.87;96879.06;4192929;28;5658;-74
2022/11/09 10:04:19;;;;;;;;;;;;;;;16.11;61.67;96875.59;4203037;28;5631;-73
2022/11/09 10:06:45;;;;;;;;;;;;;;;16.16;61.83;96878.38;4203167;28;5635;-73
2022/11/09 10:08:59;;;;;;;;;;;;;;;16.18;61.90;96880.81;4184837;28;6571;-73
2022/11/09 10:11:15;;;;;;;;;;;;;;;16.18;62.00;96868.28;4202438;28;5907;-73
2022/11/09 10:13:51;;;;;;;;;;;;;;;16.17;61.84;96861.31;4184923;28;6412;-74
2022/11/09 10:16:03;;;;;;;;;;;;;;;16.20;62.15;96874.22;4197393;28;5803;-74
2022/11/09 10:18:26;;;;;;;;;;;;;;;16.23;61.87;96872.97;4202607;28;5640;-73
2022/11/09 10:20:42;;;;;;;;;;;;;;;16.23;61.92;96876.44;4184771;28;5638;-74
2022/11/09 10:23:00;;;;;;;;;;;;;;;16.26;62.05;96872.50;4202869;28;5628;-74
2022/11/09 10:25:16;;;;;;;;;;;;;;;16.27;62.11;96863.44;4184729;28;5768;-73
2022/11/09 10:27:50;;;;;;;;;;;;;;;16.28;62.05;96876.56;4202649;28;5635;-74
2022/11/09 10:30:02;;;;;;;;;;;;;;;16.30;61.85;96869.13;4202714;28;5742;-74
2022/11/09 10:32:14;;;;;;;;;;;;;;;16.29;62.19;96856.84;4202507;28;6448;-74
2022/11/09 10:34:20;;;;;;;;;;;;;;;16.30;61.91;96857.66;4225169;28;5606;-74
2022/11/09 10:36:29;;;;;;;;;;;;;;;16.29;62.02;96872.84;4236438;28;5614;-74
2022/11/09 10:38:38;;;;;;;;;;;;;;;16.29;62.04;96859.50;4236052;28;5840;-74
2022/11/09 10:40:45;;;;;;;;;;;;;;;16.32;62.04;96858.25;4236061;28;5606;-74
2022/11/09 10:42:50;;;;;;;;;;;;;;;16.30;62.02;96861.13;4236571;28;5625;-74
2022/11/09 10:44:55;;;;;;;;;;;;;;;16.28;62.17;96860.56;4217938;28;5869;-73
2022/11/09 10:47:06;;;;;;;;;;;;;;;16.29;62.26;96870.19;4236033;28;5621;-73
2022/11/09 10:49:22;;;;;;;;;;;;;;;16.28;62.07;96860.56;4235964;28;6915;-73
2022/11/09 10:51:33;;;;;;;;;;;;;;;16.28;62.19;96860.56;4236254;28;5706;-73
2022/11/09 10:53:44;;;;;;;;;;;;;;;16.29;62.09;96861.38;4235771;28;5598;-73
2022/11/09 10:55:53;;;;;;;;;;;;;;;16.28;61.96;96854.41;4235929;28;5622;-74
2022/11/09 10:58:01;;;;;;;;;;;;;;;16.30;62.02;96853.13;4235109;28;6284;-74
2022/11/09 11:00:14;;;;;;;;;;;;;;;16.29;62.18;96851.50;4235693;28;5613;-73
2022/11/09 11:02:46;;;;;;;;;;;;;;;16.27;62.25;96848.25;4235751;28;6397;-74
2022/11/09 11:04:52;;;;;;;;;;;;;;;16.26;62.32;96853.81;4235576;28;5626;-73
2022/11/09 11:06:55;;;;;;;;;;;;;;;16.25;62.21;96855.69;4202432;28;5715;-74
2022/11/09 11:09:15;;;;;;;;;;;;;;;16.26;62.30;96854.63;4201249;28;5710;-74
2022/11/09 11:11:27;;;;;;;;;;;;;;;16.26;62.36;96848.50;4200955;28;5698;-74
2022/11/09 11:13:37;;;;;;;;;;;;;;;16.29;62.26;96853.38;4201902;28;5718;-74
2022/11/09 11:15:42;;;;;;;;;;;;;;;16.27;62.13;96847.44;4202047;28;5694;-73
2022/11/09 11:17:45;;;;;;;;;;;;;;;16.29;62.40;96848.84;4231804;28;5606;-74
2022/11/09 11:19:48;;;;;;;;;;;;;;;16.30;62.45;96863.81;4235599;28;5606;-74
2022/11/09 11:22:21;;;;;;;;;;;;;;;16.28;62.45;96855.22;4219934;28;5978;-74
2022/11/09 11:24:40;;;;;;;;;;;;;;;16.29;62.14;96848.84;4200476;28;5636;-74
2022/11/09 11:26:52;;;;;;;;;;;;;;;16.29;62.54;96846.16;4214716;28;5605;-75
2022/11/09 11:29:01;;;;;;;;;;;;;;;16.28;62.41;96839.22;4235370;28;5696;-73
2022/11/09 11:31:14;;;;;;;;;;;;;;;16.29;62.56;96840.84;4235300;28;5593;-73
2022/11/09 11:33:22;;;;;;;;;;;;;;;16.30;62.49;96839.78;4235347;28;5598;-73
2022/11/09 11:35:34;;;;;;;;;;;;;;;16.28;62.61;96833.88;4235230;28;5602;-73
2022/11/09 11:37:51;;;;;;;;;;;;;;;16.27;62.58;96842.91;4235020;28;5852;-74
2022/11/09 11:40:02;;;;;;;;;;;;;;;16.30;62.59;96845.13;4234629;28;5602;-73
2022/11/09 11:42:32;;;;;;;;;;;;;;;16.29;62.50;96850.69;4234954;28;5674;-73
2022/11/09 11:44:53;;;;;;;;;;;;;;;16.27;62.61;96834.91;4216701;28;5612;-73
2022/11/09 11:47:24;;;;;;;;;;;;;;;16.27;62.62;96837.59;4235136;28;5609;-74
2022/11/09 11:49:51;;;;;;;;;;;;;;;16.27;62.75;96837.59;4235131;28;5617;-73
2022/11/09 11:52:02;;;;;;;;;;;;;;;16.25;62.48;96829.00;4234578;28;5825;-74
2022/11/09 11:54:18;;;;;;;;;;;;;;;16.25;62.73;96828.19;4215384;28;5754;-74
2022/11/09 11:56:26;;;;;;;;;;;;;;;16.24;62.86;96821.22;4201365;28;5690;-74
2022/11/09 11:58:47;;;;;;;;;;;;;;;16.24;62.75;96822.03;4201236;28;5694;-74
2022/11/09 12:01:04;;;;;;;;;;;;;;;16.25;62.67;96822.84;4199694;28;5738;-74
2022/11/09 12:03:27;;;;;;;;;;;;;;;16.25;62.84;96829.00;4200983;28;5784;-74
2022/11/09 12:05:56;;;;;;;;;;;;;;;16.26;63.05;96833.28;4200870;28;5698;-73
2022/11/09 12:08:10;;;;;;;;;;;;;;;16.26;62.98;96833.28;4197040;28;5820;-73
2022/11/09 12:10:27;;;;;;;;;;;;;;;16.27;63.10;96836.78;4222117;28;5605;-74
2022/11/09 12:12:47;;;;;;;;;;;;;;;16.26;63.09;96835.97;4234589;28;5824;-74
2022/11/09 12:15:01;;;;;;;;;;;;;;;16.27;62.98;96834.09;4234667;28;5625;-74
2022/11/09 12:17:14;;;;;;;;;;;;;;;16.26;63.15;96830.63;4234318;28;5610;-73
2022/11/09 12:19:40;;;;;;;;;;;;;;;16.25;63.15;96834.34;4234615;28;5856;-73
2022/11/09 12:21:54;;;;;;;;;;;;;;;16.24;63.28;96831.91;4233860;28;5836;-73
2022/11/09 12:24:11;;;;;;;;;;;;;;;16.22;63.22;96840.13;4234400;28;5816;-73
2022/11/09 12:26:32;;;;;;;;;;;;;;;16.26;63.40;96843.16;4234661;28;5336;-73
2022/11/09 12:28:56;;;;;;;;;;;;;;;16.26;63.42;96851.16;4234405;28;7726;-73
2022/11/09 12:31:07;;;;;;;;;;;;;;;16.23;63.33;96857.75;4234183;28;5693;-73
2022/11/09 12:33:20;;;;;;;;;;;;;;;16.24;63.58;96872.72;4234498;28;5684;-73
2022/11/09 12:35:29;;;;;;;;;;;;;;;16.23;63.56;96879.09;4234342;28;5774;-74
2022/11/09 12:37:36;;;;;;;;;;;;;;;16.23;63.52;96875.63;4234458;28;5609;-73
2022/11/09 12:39:45;;;;;;;;;;;;;;;16.22;63.63;96856.16;4234185;28;5606;-73
2022/11/09 12:41:54;;;;;;;;;;;;;;;16.20;63.77;96841.41;4220056;28;5692;-73
2022/11/09 12:44:04;;;;;;;;;;;;;;;16.17;63.75;96815.16;4200506;28;5738;-73
2022/11/09 12:46:17;;;;;;;;;;;;;;;16.16;63.87;96818.88;4205455;28;5620;-73
2022/11/09 12:48:28;;;;;;;;;;;;;;;16.15;64.00;96820.75;4215802;28;5696;-73
2022/11/09 12:50:33;;;;;;;;;;;;;;;16.18;64.07;96822.13;4217251;28;5771;-73
2022/11/09 12:52:38;;;;;;;;;;;;;;;16.20;64.08;96828.06;4216894;28;5621;-73
2022/11/09 12:54:50;;;;;;;;;;;;;;;16.17;64.19;96820.50;4199033;28;5895;-73
2022/11/09 12:57:02;;;;;;;;;;;;;;;16.23;64.07;96830.28;4198631;28;5631;-73
2022/11/09 12:59:35;;;;;;;;;;;;;;;16.23;64.11;96835.63;4217148;28;5629;-73
2022/11/09 13:01:50;;;;;;;;;;;;;;;16.24;64.15;96838.06;4215605;28;5684;-73
2022/11/09 13:03:58;;;;;;;;;;;;;;;16.25;64.11;96846.88;4199175;28;5643;-73
2022/11/09 13:06:25;;;;;;;;;;;;;;;16.23;64.33;96841.75;4217262;28;5621;-73
2022/11/09 13:08:38;;;;;;;;;;;;;;;16.23;64.29;96831.09;4214641;28;5692;-73
2022/11/09 13:10:41;;;;;;;;;;;;;;;16.22;64.15;96847.31;4217110;28;5613;-73
2022/11/09 13:12:46;;;;;;;;;;;;;;;16.20;64.49;96844.09;4217036;28;5764;-73
2022/11/09 13:14:52;;;;;;;;;;;;;;;16.19;64.52;96832.56;4216954;28;5620;-73
2022/11/09 13:17:00;;;;;;;;;;;;;;;16.19;64.36;96835.22;4217124;28;5080;-73
2022/11/09 13:19:03;;;;;;;;;;;;;;;16.18;64.59;96846.13;4198763;28;5247;-73
2022/11/09 13:21:37;;;;;;;;;;;;;;;16.17;64.63;96858.66;4217121;28;5616;-73
2022/11/09 13:23:42;;;;;;;;;;;;;;;16.17;64.73;96853.31;4216751;28;5633;-73
2022/11/09 13:26:23;;;;;;;;;;;;;;;16.17;64.56;96855.19;4216717;28;5640;-73
2022/11/09 13:29:10;;;;;;;;;;;;;;;16.15;64.83;96855.41;4216524;28;5612;-73
2022/11/09 13:31:13;;;;;;;;;;;;;;;16.14;65.04;96861.78;4185624;28;5638;-73
2022/11/09 13:33:29;;;;;;;;;;;;;;;16.13;64.97;96859.34;4203356;28;5615;-73
2022/11/09 13:35:59;;;;;;;;;;;;;;;16.13;64.82;96862.81;4203709;28;5639;-73
2022/11/09 13:38:02;;;;;;;;;;;;;;;16.13;64.85;96862.81;4203297;28;5636;-74
2022/11/09 13:40:40;;;;;;;;;;;;;;;16.12;65.02;96861.22;4203181;28;5615;-74
2022/11/09 13:42:58;;;;;;;;;;;;;;;16.12;64.92;96869.22;4202826;28;5636;-74
2022/11/09 13:45:27;;;;;;;;;;;;;;;16.14;65.15;96863.63;4203616;28;5862;-73
2022/11/09 13:47:38;;;;;;;;;;;;;;;16.13;65.12;96865.50;4220166;28;5604;-74
2022/11/09 13:49:51;;;;;;;;;;;;;;;16.13;65.29;96867.34;4220378;28;5820;-74
2022/11/09 13:51:58;;;;;;;;;;;;;;;16.11;65.35;96864.91;4219924;28;5640;-73
2022/11/09 13:54:05;;;;;;;;;;;;;;;16.14;65.26;96868.97;4219858;28;5601;-73
2022/11/09 13:56:24;;;;;;;;;;;;;;;16.16;65.18;96867.69;4219850;28;5632;-73
2022/11/09 13:58:35;;;;;;;;;;;;;;;16.17;65.33;96874.66;4220041;28;5644;-73
2022/11/09 14:00:50;;;;;;;;;;;;;;;16.18;65.32;96873.63;4219682;28;5720;-73
2022/11/09 14:03:05;;;;;;;;;;;;;;;16.16;65.30;96870.38;4219665;28;5612;-73
2022/11/09 14:05:24;;;;;;;;;;;;;;;16.17;65.36;96880.00;4219796;28;5695;-73
2022/11/09 14:07:35;;;;;;;;;;;;;;;16.18;65.44;96902.97;4219493;28;5605;-73
2022/11/09 14:09:54;;;;;;;;;;;;;;;16.18;65.30;96905.63;4219709;28;5625;-73
2022/11/09 14:12:19;;;;;;;;;;;;;;;16.18;65.33;96908.28;4219642;28;5776;-73
2022/11/09 14:15:00;;;;;;;;;;;;;;;16.12;65.49;96903.06;4219617;28;5905;-73
2022/11/09 14:17:15;;;;;;;;;;;;;;;16.12;65.51;96914.53;4218347;28;7667;-73
2022/11/09 14:19:28;;;;;;;;;;;;;;;16.14;65.65;96917.78;4202360;28;5635;-73
2022/11/09 14:21:42;;;;;;;;;;;;;;;16.15;65.60;96919.41;4202694;28;5616;-73
2022/11/09 14:23:46;;;;;;;;;;;;;;;16.15;65.73;96923.94;4202484;28;5710;-73
2022/11/09 14:25:55;;;;;;;;;;;;;;;16.16;65.79;96934.38;4202573;28;5722;-73
2022/11/09 14:28:00;;;;;;;;;;;;;;;16.16;65.70;96930.91;4184793;28;5799;-73
2022/11/09 14:30:15;;;;;;;;;;;;;;;16.17;65.79;96937.84;4202725;28;5706;-73
2022/11/09 14:32:34;;;;;;;;;;;;;;;16.17;66.05;96938.66;4202509;28;5815;-73
2022/11/09 14:34:40;;;;;;;;;;;;;;;16.19;65.93;96939.25;4229939;28;5855;-73
2022/11/09 14:36:45;;;;;;;;;;;;;;;16.20;65.84;96948.91;4236272;28;5079;-73
2022/11/09 14:39:00;;;;;;;;;;;;;;;16.20;65.97;96954.25;4236135;28;5602;-72
2022/11/09 14:41:03;;;;;;;;;;;;;;;16.22;66.02;96962.03;4235353;28;5095;-73
2022/11/09 14:43:31;;;;;;;;;;;;;;;16.20;65.94;96959.59;4236124;28;5609;-73
2022/11/09 14:45:34;;;;;;;;;;;;;;;16.21;65.83;96968.41;4236029;28;5613;-73
2022/11/09 14:47:48;;;;;;;;;;;;;;;16.23;66.00;96966.31;4236104;28;5602;-73
2022/11/09 14:49:52;;;;;;;;;;;;;;;16.22;65.99;96973.50;4236008;28;5605;-73
2022/11/09 14:51:55;;;;;;;;;;;;;;;16.22;66.18;96978.84;4235707;28;6826;-73
2022/11/09 14:54:02;;;;;;;;;;;;;;;16.22;66.12;96970.84;4235416;28;5611;-73
2022/11/09 14:56:14;;;;;;;;;;;;;;;16.22;66.07;96986.84;4235803;28;5613;-73
2022/11/09 14:58:21;;;;;;;;;;;;;;;16.22;65.78;96992.19;4235868;28;5800;-73
2022/11/09 15:00:29;;;;;;;;;;;;;;;16.22;66.13;96989.50;4225075;28;5683;-72
2022/11/09 15:02:36;;;;;;;;;;;;;;;16.21;66.11;96987.88;4216838;28;5632;-72
2022/11/09 15:04:57;;;;;;;;;;;;;;;16.23;66.28;96996.47;4213966;28;5697;-72
2022/11/09 15:07:04;;;;;;;;;;;;;;;16.21;66.14;96995.88;4212266;28;6034;-73
2022/11/09 15:09:18;;;;;;;;;;;;;;;16.19;66.32;96995.25;4212110;28;5759;-73
2022/11/09 15:11:30;;;;;;;;;;;;;;;16.21;66.47;97003.06;4211843;28;5824;-72
2022/11/09 15:13:37;;;;;;;;;;;;;;;16.21;66.34;97013.75;4216023;28;5708;-72
2022/11/09 15:15:40;;;;;;;;;;;;;;;16.20;66.36;97023.59;4206943;28;5806;-72
2022/11/09 15:17:46;;;;;;;;;;;;;;;16.21;66.49;97021.75;4190002;28;5734;-71
2022/11/09 15:19:54;;;;;;;;;;;;;;;16.18;66.31;97022.16;4196025;28;7080;-73
2022/11/09 15:21:58;;;;;;;;;;;;;;;16.15;66.44;97015.44;4192100;28;5544;-73
2022/11/09 15:24:14;;;;;;;;;;;;;;;16.13;66.58;97019.38;4194282;28;7780;-73
2022/11/09 15:26:27;;;;;;;;;;;;;;;16.11;66.66;97019.59;4195255;28;5856;-73
2022/11/09 15:28:45;;;;;;;;;;;;;;;16.12;66.77;97031.06;4197609;28;5714;-72
2022/11/09 15:31:05;;;;;;;;;;;;;;;16.11;66.63;97030.25;4193847;28;5731;-73
2022/11/09 15:33:20;;;;;;;;;;;;;;;16.13;66.75;97038.84;4186833;28;5755;-73
2022/11/09 15:35:25;;;;;;;;;;;;;;;16.13;66.72;97040.69;4197137;28;5775;-73
2022/11/09 15:37:30;;;;;;;;;;;;;;;16.11;66.73;97046.25;4199781;28;5816;-73
2022/11/09 15:39:33;;;;;;;;;;;;;;;16.09;66.88;97048.34;4193613;28;5686;-73
2022/11/09 15:41:37;;;;;;;;;;;;;;;16.12;66.82;97050.56;4192702;28;5878;-73
2022/11/09 15:43:41;;;;;;;;;;;;;;;16.10;66.76;97049.97;4195804;28;6572;-73
2022/11/09 15:45:52;;;;;;;;;;;;;;;16.11;66.86;97043.59;4195676;28;5678;-73
2022/11/09 15:48:01;;;;;;;;;;;;;;;16.11;67.12;97038.25;4192310;28;5784;-73
2022/11/09 15:50:15;;;;;;;;;;;;;;;16.11;67.05;97024.94;4195424;28;5752;-73
2022/11/09 15:52:25;;;;;;;;;;;;;;;16.08;66.85;97009.34;4193385;28;5695;-73
2022/11/09 15:54:28;;;;;;;;;;;;;;;16.05;67.00;97015.13;4189706;28;5955;-73
2022/11/09 15:56:36;;;;;;;;;;;;;;;16.01;67.02;97000.63;4195527;28;5806;-74
2022/11/09 15:58:43;;;;;;;;;;;;;;;15.98;67.26;97001.91;4192009;28;5719;-73
2022/11/09 16:00:46;;;;;;;;;;;;;;;15.97;67.23;97000.25;4193577;28;5710;-73
2022/11/09 16:02:54;;;;;;;;;;;;;;;15.91;67.13;96987.00;4191583;28;5780;-73
2022/11/09 16:04:57;;;;;;;;;;;;;;;15.90;67.46;96990.69;4196098;28;5935;-73
2022/11/09 16:07:14;;;;;;;;;;;;;;;15.84;67.23;96975.56;4197076;28;7259;-74
2022/11/09 16:09:19;;;;;;;;;;;;;;;15.78;67.43;96977.28;4198364;28;5126;-73
2022/11/09 16:11:23;;;;;;;;;;;;;;;15.72;67.73;96992.31;4185382;28;5707;-74
2022/11/09 16:13:31;;;;;;;;;;;;;;;15.69;67.76;96990.09;4198577;28;5742;-73
2022/11/09 16:15:36;;;;;;;;;;;;;;;15.69;67.64;96990.09;4192842;28;5818;-74
2022/11/09 16:17:42;;;;;;;;;;;;;;;15.67;67.67;96986.84;4196216;28;5716;-74
2022/11/09 16:19:45;;;;;;;;;;;;;;;15.71;67.58;96992.53;4212035;28;5608;-73
2022/11/09 16:21:56;;;;;;;;;;;;;;;15.75;67.57;97000.91;4215455;28;6290;-73
2022/11/09 16:24:09;;;;;;;;;;;;;;;15.73;67.85;97001.94;4209827;28;5621;-73
2022/11/09 16:26:21;;;;;;;;;;;;;;;15.80;67.55;97017.88;4212428;28;5639;-74
2022/11/09 16:28:41;;;;;;;;;;;;;;;15.84;67.58;97023.56;4220158;28;5617;-74
2022/11/09 16:30:48;;;;;;;;;;;;;;;15.89;67.45;97026.41;4210393;28;5871;-74
2022/11/09 16:32:54;;;;;;;;;;;;;;;15.92;67.44;97039.28;4208148;28;5613;-74
2022/11/09 16:34:57;;;;;;;;;;;;;;;15.92;67.63;97034.75;4205501;28;5644;-74
2022/11/09 16:37:21;;;;;;;;;;;;;;;15.97;67.51;97036.78;4223623;28;6178;-74
2022/11/09 16:39:28;;;;;;;;;;;;;;;15.97;67.44;97034.13;4215724;28;5718;-74
2022/11/09 16:41:38;;;;;;;;;;;;;;;15.99;67.57;97042.69;4205639;28;5761;-74
2022/11/09 16:43:42;;;;;;;;;;;;;;;15.99;67.56;97048.03;4206378;28;5627;-74
2022/11/09 16:45:48;;;;;;;;;;;;;;;16.01;67.39;97045.97;4210574;28;5719;-74